Time;durP1;ratioP1;P1;durP2;ratioP2;P2;SDS_P1;SDS_P2;PMS_P1;PMS_P2;Temp;Humidity;BMP_temperature;BMP_pressure;BME280_temperature;BME280_humidity;BME280_pressure;Samples;Min_cycle;Max_cycle;Signal;HPM_P1;HPM_P2
2023/10/20 00:00:21;;;;;;;1.77;1.67;;;15.30;99.90;;;;;;5068858;28;20210;-73
2023/10/20 00:02:47;;;;;;;1.90;1.70;;;15.30;99.90;;;;;;5070360;28;20734;-73
2023/10/20 00:05:13;;;;;;;4.77;1.90;;;15.30;99.90;;;;;;5070403;28;20712;-73
2023/10/20 00:07:39;;;;;;;2.03;1.40;;;15.40;99.90;;;;;;5068906;28;20711;-73
2023/10/20 00:10:08;;;;;;;4.73;1.37;;;15.30;99.90;;;;;;5070595;28;20417;-73
2023/10/20 00:12:34;;;;;;;2.70;1.47;;;15.30;99.90;;;;;;5070742;28;20733;-72
2023/10/20 00:15:01;;;;;;;2.73;1.33;;;15.40;99.90;;;;;;5070045;28;20598;-72
2023/10/20 00:17:26;;;;;;;5.63;1.50;;;15.40;99.90;;;;;;5070578;28;20439;-73
2023/10/20 00:19:53;;;;;;;1.30;1.20;;;15.40;99.90;;;;;;5070584;28;20816;-73
2023/10/20 00:22:19;;;;;;;2.30;1.50;;;15.40;99.90;;;;;;5069146;28;20278;-73
2023/10/20 00:24:45;;;;;;;2.80;1.40;;;15.40;99.90;;;;;;5070420;28;20403;-73
2023/10/20 00:27:13;;;;;;;2.70;1.53;;;15.50;99.90;;;;;;5070292;28;20449;-73
2023/10/20 00:29:40;;;;;;;3.23;1.30;;;15.50;99.90;;;;;;5070217;28;20419;-73
2023/10/20 00:32:05;;;;;;;1.73;1.27;;;15.60;99.90;;;;;;5069646;28;20426;-74
2023/10/20 00:34:31;;;;;;;1.53;0.93;;;15.50;99.90;;;;;;5069517;28;20434;-72
2023/10/20 00:36:57;;;;;;;3.00;1.20;;;15.60;99.90;;;;;;5069277;28;20296;-73
2023/10/20 00:39:23;;;;;;;6.30;1.43;;;15.50;99.90;;;;;;5069275;28;20282;-73
2023/10/20 00:41:49;;;;;;;2.17;1.20;;;15.50;99.90;;;;;;5067782;28;20318;-73
2023/10/20 00:44:14;;;;;;;1.20;1.03;;;15.60;99.90;;;;;;5069215;28;20512;-72
2023/10/20 00:46:43;;;;;;;2.40;1.10;;;15.60;99.90;;;;;;5069170;28;20434;-72
2023/10/20 00:49:10;;;;;;;3.63;1.70;;;15.60;99.90;;;;;;5069312;28;20169;-70
2023/10/20 00:51:36;;;;;;;2.37;1.10;;;15.60;99.90;;;;;;5069056;28;20410;-72
2023/10/20 00:54:02;;;;;;;1.47;1.37;;;15.50;99.90;;;;;;5067669;28;20427;-73
2023/10/20 00:56:29;;;;;;;3.03;1.67;;;15.50;99.90;;;;;;5068893;28;20448;-73
2023/10/20 00:58:55;;;;;;;3.77;1.70;;;15.40;99.90;;;;;;5068810;28;20427;-72
2023/10/20 01:01:21;;;;;;;3.17;1.13;;;15.30;99.90;;;;;;5068526;28;20534;-73
2023/10/20 01:03:48;;;;;;;3.60;1.50;;;15.20;99.90;;;;;;5068854;28;20287;-72
2023/10/20 01:06:14;;;;;;;2.40;1.23;;;15.20;99.90;;;;;;5069066;28;20207;-73
2023/10/20 01:08:39;;;;;;;2.10;1.63;;;15.00;99.90;;;;;;5067513;28;21179;-73
2023/10/20 01:11:05;;;;;;;6.27;1.37;;;15.00;99.90;;;;;;5069282;28;20179;-72
2023/10/20 01:13:31;;;;;;;1.57;1.40;;;15.00;99.90;;;;;;5069049;28;20198;-71
2023/10/20 01:15:57;;;;;;;1.70;1.30;;;15.00;99.90;;;;;;5067432;28;20414;-72
2023/10/20 01:18:22;;;;;;;2.90;1.60;;;15.00;99.90;;;;;;5068752;28;20175;-73
2023/10/20 01:20:48;;;;;;;1.83;1.73;;;14.90;99.90;;;;;;5068526;28;20209;-73
2023/10/20 01:23:13;;;;;;;3.60;1.73;;;14.90;99.90;;;;;;5068607;28;20193;-72
2023/10/20 01:25:39;;;;;;;2.23;1.90;;;14.90;99.90;;;;;;5068574;28;20184;-72
2023/10/20 01:28:05;;;;;;;5.80;2.00;;;15.00;99.90;;;;;;5068390;28;20211;-72
2023/10/20 01:30:30;;;;;;;4.23;1.93;;;15.00;99.90;;;;;;5068410;28;20200;-72
2023/10/20 01:32:56;;;;;;;3.70;2.13;;;15.10;99.90;;;;;;5068419;28;20232;-73
2023/10/20 01:35:22;;;;;;;3.00;2.20;;;15.00;99.90;;;;;;5068471;28;20185;-73
2023/10/20 01:37:47;;;;;;;2.70;2.00;;;15.10;99.90;;;;;;5066888;28;20216;-72
2023/10/20 01:40:13;;;;;;;5.97;2.70;;;15.00;99.90;;;;;;5050122;28;20192;-71
2023/10/20 01:42:39;;;;;;;4.60;2.63;;;15.10;99.90;;;;;;5066773;28;20592;-72
2023/10/20 01:45:06;;;;;;;6.33;2.70;;;15.10;99.90;;;;;;5068351;28;20181;-74
2023/10/20 01:47:32;;;;;;;5.33;2.60;;;15.10;99.90;;;;;;5068059;28;21069;-73
2023/10/20 01:49:57;;;;;;;6.40;3.80;;;15.10;99.90;;;;;;5068070;28;20911;-74
2023/10/20 01:52:23;;;;;;;3.57;2.80;;;15.10;99.90;;;;;;5068226;28;20430;-72
2023/10/20 01:54:48;;;;;;;6.03;2.50;;;15.10;99.90;;;;;;5068032;28;20183;-73
2023/10/20 01:57:14;;;;;;;6.10;2.47;;;15.10;99.90;;;;;;5068057;28;20235;-72
2023/10/20 01:59:40;;;;;;;3.53;3.20;;;15.00;99.90;;;;;;5068027;28;20272;-72
2023/10/20 02:02:06;;;;;;;7.10;3.00;;;14.90;99.90;;;;;;5066318;28;20694;-72
2023/10/20 02:04:31;;;;;;;3.30;3.00;;;14.80;99.90;;;;;;5066493;28;20263;-72
2023/10/20 02:06:57;;;;;;;4.57;2.90;;;14.80;99.90;;;;;;5067821;28;20232;-73
2023/10/20 02:09:25;;;;;;;6.43;3.20;;;14.80;99.90;;;;;;5066594;28;20179;-73
2023/10/20 02:11:52;;;;;;;7.47;4.33;;;14.80;99.90;;;;;;5066460;28;20552;-72
2023/10/20 02:14:17;;;;;;;5.40;3.00;;;14.80;99.90;;;;;;5066388;28;20478;-72
2023/10/20 02:16:43;;;;;;;2.93;2.43;;;14.80;99.90;;;;;;5066269;28;20996;-73
2023/10/20 02:19:10;;;;;;;5.77;3.13;;;14.80;99.90;;;;;;5066148;28;20627;-73
2023/10/20 02:21:37;;;;;;;3.20;2.87;;;14.80;99.90;;;;;;5067636;28;20215;-73
2023/10/20 02:24:03;;;;;;;4.33;2.30;;;14.70;99.90;;;;;;5067728;28;20414;-72
2023/10/20 02:26:29;;;;;;;3.73;3.10;;;14.60;99.90;;;;;;5065978;28;20450;-72
2023/10/20 02:28:55;;;;;;;9.73;3.80;;;14.50;99.90;;;;;;5067690;28;20419;-72
2023/10/20 02:31:20;;;;;;;2.90;2.60;;;14.50;99.90;;;;;;5066364;28;20241;-73
2023/10/20 02:33:47;;;;;;;19.70;3.20;;;14.60;99.90;;;;;;5066259;28;20206;-72
2023/10/20 02:36:17;;;;;;;4.07;2.90;;;14.60;99.90;;;;;;5067565;28;20207;-73
2023/10/20 02:38:43;;;;;;;8.73;3.10;;;14.70;99.90;;;;;;5067741;28;20944;-73
2023/10/20 02:41:13;;;;;;;4.80;3.13;;;14.60;99.90;;;;;;5071239;28;20462;-73
2023/10/20 02:43:38;;;;;;;5.17;3.23;;;14.70;99.90;;;;;;5071159;28;20847;-73
2023/10/20 02:46:04;;;;;;;3.53;3.20;;;14.60;99.90;;;;;;5071098;28;20521;-73
2023/10/20 02:48:30;;;;;;;6.70;3.50;;;14.60;99.90;;;;;;5071220;28;20256;-72
2023/10/20 02:50:55;;;;;;;4.37;3.17;;;14.50;99.90;;;;;;5069788;28;20175;-72
2023/10/20 02:53:21;;;;;;;6.33;3.63;;;14.50;99.90;;;;;;5053128;28;20192;-73
2023/10/20 02:55:47;;;;;;;5.40;3.60;;;14.40;99.90;;;;;;5070976;28;20187;-72
2023/10/20 02:58:13;;;;;;;7.60;3.40;;;14.40;99.90;;;;;;5070936;28;20448;-72
2023/10/20 03:00:42;;;;;;;11.97;4.73;;;14.30;99.90;;;;;;5070864;28;20172;-71
2023/10/20 03:03:11;;;;;;;7.30;5.57;;;14.30;99.90;;;;;;5071002;28;20713;-72
2023/10/20 03:05:37;;;;;;;7.30;5.70;;;14.20;99.90;;;;;;5069347;28;20434;-71
2023/10/20 03:08:03;;;;;;;8.03;5.30;;;14.10;99.90;;;;;;5071432;28;20432;-72
2023/10/20 03:10:29;;;;;;;8.10;5.10;;;14.10;99.90;;;;;;5071153;28;20560;-71
2023/10/20 03:12:55;;;;;;;9.33;6.00;;;14.00;99.90;;;;;;5071829;28;20946;-72
2023/10/20 03:15:20;;;;;;;9.57;6.83;;;14.00;99.90;;;;;;5071655;28;20210;-71
2023/10/20 03:17:46;;;;;;;11.70;7.47;;;13.90;99.90;;;;;;5070291;28;20195;-72
2023/10/20 03:20:17;;;;;;;8.63;5.60;;;13.90;99.90;;;;;;5071778;28;20190;-72
2023/10/20 03:22:44;;;;;;;9.43;6.30;;;13.90;99.90;;;;;;5070318;28;20207;-73
2023/10/20 03:25:10;;;;;;;13.00;8.53;;;13.80;99.90;;;;;;5071644;28;21157;-72
2023/10/20 03:27:37;;;;;;;9.20;7.47;;;13.70;99.90;;;;;;5070165;28;20445;-72
2023/10/20 03:30:05;;;;;;;18.80;11.40;;;13.70;99.90;;;;;;5070058;28;20427;-73
2023/10/20 03:32:32;;;;;;;18.50;11.30;;;13.60;99.90;;;;;;5071476;28;20425;-72
2023/10/20 03:34:57;;;;;;;15.67;11.47;;;13.60;99.90;;;;;;5069990;28;20437;-72
2023/10/20 03:37:23;;;;;;;16.67;10.73;;;13.60;99.90;;;;;;5071149;28;21030;-70
2023/10/20 03:39:50;;;;;;;15.50;10.23;;;13.60;99.90;;;;;;5069741;28;20183;-72
2023/10/20 03:42:16;;;;;;;17.13;12.60;;;13.60;99.90;;;;;;5069371;28;20215;-72
2023/10/20 03:44:43;;;;;;;18.90;14.10;;;13.50;99.90;;;;;;5069356;28;20503;-72
2023/10/20 03:47:09;;;;;;;19.37;12.47;;;13.60;99.90;;;;;;5069247;28;20197;-72
2023/10/20 03:49:35;;;;;;;18.37;12.83;;;13.50;99.90;;;;;;5069353;28;20415;-72
2023/10/20 03:52:06;;;;;;;17.33;12.87;;;13.40;99.90;;;;;;5069429;28;20453;-72
2023/10/20 03:54:33;;;;;;;20.20;13.20;;;13.40;99.90;;;;;;5068279;28;20434;-73
2023/10/20 03:56:59;;;;;;;27.47;14.53;;;13.40;99.90;;;;;;5068053;28;20465;-72
2023/10/20 03:59:25;;;;;;;17.20;11.53;;;13.40;99.90;;;;;;5069564;28;20460;-71
2023/10/20 04:01:51;;;;;;;15.40;10.67;;;13.40;99.90;;;;;;5067612;28;20241;-72
2023/10/20 04:04:17;;;;;;;17.10;10.87;;;13.40;99.90;;;;;;5069471;28;20467;-73
2023/10/20 04:06:46;;;;;;;17.03;10.00;;;13.40;99.90;;;;;;5069339;28;20431;-73
2023/10/20 04:09:12;;;;;;;14.20;8.60;;;13.40;99.90;;;;;;5069588;28;20886;-72
2023/10/20 04:11:38;;;;;;;12.67;7.63;;;13.40;99.90;;;;;;5067921;28;20448;-72
2023/10/20 04:14:08;;;;;;;10.53;7.70;;;13.40;99.90;;;;;;5069253;28;20452;-72
2023/10/20 04:16:42;;;;;;;10.17;7.40;;;13.40;99.90;;;;;;5069149;28;20558;-72
2023/10/20 04:19:15;;;;;;;13.80;9.60;;;13.40;99.90;;;;;;5069252;28;20424;-72
2023/10/20 04:21:43;;;;;;;13.10;10.23;;;13.40;99.90;;;;;;5069034;28;20507;-72
2023/10/20 04:24:09;;;;;;;18.30;11.87;;;13.30;99.90;;;;;;5068910;28;20501;-72
2023/10/20 04:26:42;;;;;;;15.50;12.37;;;13.30;99.90;;;;;;5067183;28;20955;-72
2023/10/20 04:48:39;;;;;;;15.27;11.13;;;13.20;99.90;;;;;;5026455;28;20207;-72
2023/10/20 04:51:20;;;;;;;13.53;9.20;;;13.20;99.90;;;;;;5015402;28;20572;-73
2023/10/20 05:01:30;;;;;;;13.93;9.80;;;13.20;99.90;;;;;;5068779;28;20483;-72
2023/10/20 05:04:10;;;;;;;11.07;8.37;;;13.10;99.90;;;;;;5068540;28;20277;-73
2023/10/20 05:06:54;;;;;;;15.20;8.07;;;13.20;99.90;;;;;;5069479;28;20452;-71
2023/10/20 05:09:24;;;;;;;12.30;7.00;;;13.10;99.90;;;;;;5069296;28;20508;-72
2023/10/20 05:11:50;;;;;;;11.00;7.10;;;13.20;99.90;;;;;;5069169;28;20416;-73
2023/10/20 05:14:17;;;;;;;13.13;6.30;;;13.10;99.90;;;;;;5069229;28;20425;-72
2023/10/20 05:16:43;;;;;;;10.63;7.20;;;13.10;99.90;;;;;;5069046;28;20625;-72
2023/10/20 05:19:10;;;;;;;11.30;7.60;;;13.10;99.90;;;;;;5068801;28;20466;-72
2023/10/20 05:21:38;;;;;;;16.03;9.30;;;13.10;99.90;;;;;;5066938;28;20207;-73
2023/10/20 05:24:04;;;;;;;14.53;7.47;;;13.10;99.90;;;;;;5068038;28;20443;-71
2023/10/20 05:26:31;;;;;;;9.93;7.23;;;13.00;99.90;;;;;;5067748;28;20433;-71
2023/10/20 05:28:58;;;;;;;14.50;7.87;;;13.10;99.90;;;;;;5067397;28;20458;-71
2023/10/20 05:31:25;;;;;;;9.10;7.57;;;13.10;99.90;;;;;;5067352;28;20452;-71
2023/10/20 05:33:51;;;;;;;9.10;7.50;;;13.10;99.90;;;;;;5065967;28;20433;-71
2023/10/20 05:36:17;;;;;;;11.87;8.30;;;13.10;99.90;;;;;;5067342;28;20437;-71
2023/10/20 05:38:42;;;;;;;13.40;7.90;;;13.10;99.90;;;;;;5067464;28;20843;-71
2023/10/20 05:41:08;;;;;;;10.87;7.60;;;13.10;99.90;;;;;;5067436;28;20214;-71
2023/10/20 05:43:34;;;;;;;9.70;6.60;;;13.10;99.90;;;;;;5067488;28;20183;-72
2023/10/20 05:46:00;;;;;;;10.97;7.57;;;13.10;99.90;;;;;;5067533;28;20679;-72
2023/10/20 05:48:25;;;;;;;12.30;8.00;;;13.20;99.90;;;;;;5065984;28;20425;-71
2023/10/20 05:50:58;;;;;;;9.70;7.90;;;13.20;99.90;;;;;;5066786;28;20259;-71
2023/10/20 05:53:25;;;;;;;9.43;7.60;;;13.20;99.90;;;;;;5065613;28;20201;-71
2023/10/20 05:55:51;;;;;;;14.90;7.67;;;13.20;99.90;;;;;;5066907;28;20417;-71
2023/10/20 05:58:16;;;;;;;12.93;7.67;;;13.20;99.90;;;;;;5066918;28;20512;-72
2023/10/20 06:00:42;;;;;;;9.60;6.97;;;13.20;99.90;;;;;;5066544;28;20506;-72
2023/10/20 06:03:09;;;;;;;8.50;6.30;;;13.20;99.90;;;;;;5066936;28;20230;-72
2023/10/20 06:05:35;;;;;;;9.43;7.57;;;13.20;99.90;;;;;;5066850;28;20182;-71
2023/10/20 06:08:01;;;;;;;8.93;6.90;;;13.20;99.90;;;;;;5066702;28;20511;-72
2023/10/20 06:10:26;;;;;;;7.63;5.30;;;13.20;99.90;;;;;;5065392;28;20179;-72
2023/10/20 06:12:54;;;;;;;8.10;6.20;;;13.20;99.90;;;;;;5067462;28;20414;-71
2023/10/20 06:15:20;;;;;;;9.90;6.50;;;13.30;99.90;;;;;;5070932;28;20175;-71
2023/10/20 06:17:46;;;;;;;8.00;6.50;;;13.30;99.90;;;;;;5070652;28;20524;-72
2023/10/20 06:20:14;;;;;;;12.73;5.97;;;13.30;99.90;;;;;;5070464;28;20471;-72
2023/10/20 06:22:41;;;;;;;9.60;6.40;;;13.30;99.90;;;;;;5070687;28;20477;-72
2023/10/20 06:25:12;;;;;;;7.50;6.70;;;13.30;99.90;;;;;;5070138;28;20421;-71
2023/10/20 06:27:41;;;;;;;6.03;5.10;;;13.40;99.90;;;;;;5070187;28;20441;-72
2023/10/20 06:30:14;;;;;;;6.10;4.20;;;13.40;99.90;;;;;;5070277;28;20468;-71
2023/10/20 06:32:44;;;;;;;6.00;5.40;;;13.50;99.90;;;;;;5070439;28;20435;-72
2023/10/20 06:35:13;;;;;;;6.80;4.80;;;13.50;99.90;;;;;;5070305;28;20483;-72
2023/10/20 06:40:08;;;;;;;6.23;5.00;;;13.40;99.90;;;;;;5068616;28;20433;-72
2023/10/20 06:42:36;;;;;;;5.70;5.10;;;13.50;99.90;;;;;;5070101;28;20472;-72
2023/10/20 06:45:03;;;;;;;6.70;5.17;;;13.50;99.90;;;;;;5068332;28;20792;-72
2023/10/20 06:47:28;;;;;;;8.50;5.20;;;13.60;99.90;;;;;;5068103;28;20292;-71
2023/10/20 06:49:54;;;;;;;8.50;4.80;;;13.60;99.90;;;;;;5069701;28;21003;-72
2023/10/20 06:52:20;;;;;;;7.77;5.10;;;13.70;99.90;;;;;;5051518;28;20524;-72
2023/10/20 06:54:48;;;;;;;8.53;5.13;;;13.70;99.90;;;;;;5068600;28;20661;-71
2023/10/20 06:57:14;;;;;;;8.37;7.17;;;13.60;99.90;;;;;;5067772;28;20209;-72
2023/10/20 06:59:39;;;;;;;7.60;6.00;;;13.70;99.90;;;;;;5069813;28;21261;-72
2023/10/20 07:02:05;;;;;;;6.57;5.60;;;13.80;99.90;;;;;;5067953;28;20479;-72
2023/10/20 07:04:31;;;;;;;10.50;6.30;;;13.90;99.90;;;;;;5069715;28;20188;-72
2023/10/20 07:06:57;;;;;;;18.43;6.30;;;14.00;99.90;;;;;;5069268;28;20199;-72
2023/10/20 07:09:23;;;;;;;6.77;6.03;;;14.30;99.90;;;;;;5067631;28;20425;-72
2023/10/20 07:11:49;;;;;;;7.50;6.13;;;14.60;99.90;;;;;;5069527;28;20429;-72
2023/10/20 07:14:15;;;;;;;7.93;5.60;;;14.70;99.90;;;;;;5069914;28;20774;-71
2023/10/20 07:16:41;;;;;;;6.90;5.50;;;14.80;99.90;;;;;;5070215;28;20445;-72
2023/10/20 07:19:07;;;;;;;14.33;5.33;;;15.00;99.90;;;;;;5052234;28;20426;-73
2023/10/20 07:21:34;;;;;;;8.63;5.37;;;15.10;99.90;;;;;;5069732;28;20756;-72
2023/10/20 07:24:01;;;;;;;6.23;4.87;;;15.20;99.90;;;;;;5069275;28;20433;-72
2023/10/20 07:26:27;;;;;;;10.73;5.33;;;15.20;99.90;;;;;;5069710;28;20443;-72
2023/10/20 07:28:53;;;;;;;6.60;5.80;;;15.30;99.90;;;;;;5068311;28;20427;-73
2023/10/20 07:31:21;;;;;;;6.87;5.23;;;15.30;99.90;;;;;;5051737;28;20499;-73
2023/10/20 07:33:49;;;;;;;6.63;5.93;;;15.20;99.90;;;;;;5051866;28;21242;-73
2023/10/20 07:36:15;;;;;;;8.00;7.03;;;15.20;99.90;;;;;;5068150;28;21012;-73
2023/10/20 07:38:42;;;;;;;10.03;7.63;;;15.10;99.90;;;;;;5067759;28;20430;-73
2023/10/20 07:41:11;;;;;;;11.07;9.23;;;15.10;99.90;;;;;;5068878;28;20464;-72
2023/10/20 07:43:38;;;;;;;15.27;10.03;;;15.00;99.90;;;;;;5068898;28;20420;-72
2023/10/20 07:46:05;;;;;;;11.87;9.17;;;15.00;99.90;;;;;;5050711;28;20496;-72
2023/10/20 07:48:33;;;;;;;14.20;9.50;;;15.00;99.90;;;;;;5069143;28;20529;-72
2023/10/20 07:51:00;;;;;;;11.07;8.27;;;15.00;99.90;;;;;;5067331;28;20423;-72
2023/10/20 07:53:26;;;;;;;13.67;9.40;;;15.00;99.90;;;;;;5068440;28;20471;-72
2023/10/20 07:55:52;;;;;;;12.40;9.80;;;15.00;99.90;;;;;;5067847;28;20465;-72
2023/10/20 07:58:17;;;;;;;17.37;9.30;;;15.00;99.90;;;;;;5068088;28;20461;-71
2023/10/20 08:00:43;;;;;;;9.80;8.80;;;15.00;99.90;;;;;;5068273;28;20817;-72
2023/10/20 08:03:11;;;;;;;12.17;9.13;;;15.10;99.90;;;;;;5066799;28;20179;-72
2023/10/20 08:05:37;;;;;;;13.70;11.03;;;15.10;99.90;;;;;;5066931;28;20665;-73
2023/10/20 08:08:04;;;;;;;15.67;11.40;;;15.10;99.90;;;;;;5066792;28;20454;-73
2023/10/20 08:10:30;;;;;;;12.57;11.10;;;15.10;99.90;;;;;;5066548;28;20428;-73
2023/10/20 08:12:55;;;;;;;12.23;10.53;;;15.20;99.90;;;;;;5068344;28;20493;-73
2023/10/20 08:15:22;;;;;;;17.30;11.60;;;15.20;99.90;;;;;;5068472;28;20426;-71
2023/10/20 08:17:48;;;;;;;14.70;11.43;;;15.20;99.90;;;;;;5068215;28;20748;-73
2023/10/20 08:20:14;;;;;;;18.40;11.70;;;15.30;99.90;;;;;;5068046;28;20448;-73
2023/10/20 08:22:40;;;;;;;17.60;10.93;;;15.40;99.90;;;;;;5068133;28;21010;-73
2023/10/20 08:25:08;;;;;;;13.90;11.13;;;15.40;99.90;;;;;;5068287;28;20434;-73
2023/10/20 08:27:34;;;;;;;13.67;10.23;;;15.50;99.90;;;;;;5066203;28;20456;-72
2023/10/20 08:29:59;;;;;;;11.20;9.73;;;15.50;99.90;;;;;;5067944;28;20786;-73
2023/10/20 08:32:25;;;;;;;12.17;10.20;;;15.50;99.90;;;;;;5066674;28;20185;-73
2023/10/20 08:34:51;;;;;;;12.40;10.83;;;15.50;99.90;;;;;;5067804;28;20591;-70
2023/10/20 08:37:17;;;;;;;15.70;12.23;;;15.50;99.90;;;;;;5067265;28;20210;-73
2023/10/20 08:39:46;;;;;;;18.63;13.00;;;15.50;99.90;;;;;;5067816;28;20279;-73
2023/10/20 08:42:19;;;;;;;16.87;13.50;;;15.50;99.90;;;;;;5068120;28;20462;-72
2023/10/20 08:44:45;;;;;;;17.17;12.70;;;15.40;99.90;;;;;;5068530;28;20431;-72
2023/10/20 08:47:13;;;;;;;17.40;12.13;;;15.40;99.90;;;;;;5067663;28;21008;-72
2023/10/20 08:49:39;;;;;;;14.43;11.43;;;15.50;99.90;;;;;;5066808;28;20556;-73
2023/10/20 08:52:09;;;;;;;11.30;9.90;;;15.60;99.90;;;;;;5066712;28;20425;-73
2023/10/20 08:54:36;;;;;;;11.10;8.97;;;15.60;99.90;;;;;;5068339;28;21171;-72
2023/10/20 08:57:02;;;;;;;11.77;9.57;;;15.60;99.90;;;;;;5068191;28;20445;-72
2023/10/20 08:59:28;;;;;;;12.70;10.00;;;15.60;99.90;;;;;;5066714;28;20916;-72
2023/10/20 09:01:54;;;;;;;15.20;11.17;;;15.70;99.90;;;;;;5067540;28;20538;-72
2023/10/20 09:04:21;;;;;;;11.60;9.77;;;15.90;99.90;;;;;;5049374;28;20451;-72
2023/10/20 09:06:47;;;;;;;13.23;10.50;;;15.90;99.90;;;;;;5066328;28;20441;-72
2023/10/20 09:09:12;;;;;;;20.70;10.23;;;15.90;99.90;;;;;;5067855;28;20432;-71
2023/10/20 09:11:40;;;;;;;11.77;10.20;;;15.70;99.90;;;;;;5067435;28;20189;-71
2023/10/20 09:14:06;;;;;;;14.80;10.50;;;15.60;99.90;;;;;;5067285;28;20208;-73
2023/10/20 09:16:34;;;;;;;15.03;9.60;;;15.60;99.90;;;;;;5067196;28;20817;-72
2023/10/20 09:19:00;;;;;;;11.70;8.77;;;15.60;99.90;;;;;;5067527;28;21046;-72
2023/10/20 09:21:28;;;;;;;12.87;9.93;;;15.60;99.90;;;;;;5065871;28;20500;-73
2023/10/20 09:24:02;;;;;;;11.47;8.80;;;15.70;99.90;;;;;;5065632;28;20242;-72
2023/10/20 09:26:32;;;;;;;12.97;9.67;;;15.80;99.90;;;;;;5066664;28;20859;-72
2023/10/20 09:28:58;;;;;;;11.47;9.40;;;15.90;99.90;;;;;;5067867;28;20563;-72
2023/10/20 09:31:25;;;;;;;10.73;9.00;;;16.00;99.90;;;;;;5067672;28;20509;-73
2023/10/20 09:33:51;;;;;;;11.77;9.00;;;16.10;99.90;;;;;;5066490;28;20444;-73
2023/10/20 09:36:18;;;;;;;12.50;8.47;;;16.20;99.90;;;;;;5066206;28;20447;-72
2023/10/20 09:38:54;;;;;;;8.87;7.97;;;16.30;99.90;;;;;;5066340;28;20505;-72
2023/10/20 09:41:25;;;;;;;11.63;8.10;;;16.30;99.90;;;;;;5065978;28;20464;-73
2023/10/20 09:43:55;;;;;;;11.03;8.20;;;16.30;99.90;;;;;;5067434;28;20513;-73
2023/10/20 09:46:54;;;;;;;8.77;7.70;;;16.30;99.90;;;;;;5067696;28;20431;-72
2023/10/20 09:49:21;;;;;;;12.63;7.77;;;16.60;99.90;;;;;;5066561;28;21064;-71
2023/10/20 09:51:49;;;;;;;17.00;8.70;;;17.40;99.90;;;;;;5067517;28;20470;-72
2023/10/20 09:54:17;;;;;;;11.50;8.43;;;17.90;99.90;;;;;;5066981;28;20437;-72
2023/10/20 09:56:45;;;;;;;11.23;8.20;;;18.10;99.90;;;;;;5066997;28;20439;-72
2023/10/20 09:59:17;;;;;;;9.40;6.67;;;18.40;99.90;;;;;;5067454;28;20420;-72
2023/10/20 10:01:43;;;;;;;8.10;6.60;;;18.60;99.90;;;;;;5067242;28;20564;-74
2023/10/20 10:04:10;;;;;;;6.27;5.40;;;18.70;99.90;;;;;;5065680;28;20430;-73
2023/10/20 10:06:37;;;;;;;5.43;4.60;;;18.70;99.90;;;;;;5067171;28;20455;-74
2023/10/20 10:09:04;;;;;;;5.40;4.27;;;18.80;99.90;;;;;;5066966;28;20901;-73
2023/10/20 10:11:32;;;;;;;5.40;4.53;;;19.00;99.90;;;;;;5066995;28;21252;-74
2023/10/20 10:14:02;;;;;;;5.47;4.97;;;19.50;99.90;;;;;;5066997;28;20457;-73
2023/10/20 10:16:28;;;;;;;6.10;5.00;;;19.50;99.90;;;;;;5064954;28;20445;-73
2023/10/20 10:18:57;;;;;;;6.03;5.43;;;19.60;99.90;;;;;;5065472;28;20496;-73
2023/10/20 10:21:29;;;;;;;5.03;4.23;;;19.40;99.90;;;;;;5066495;28;20992;-73
2023/10/20 10:24:21;;;;;;;6.77;4.43;;;19.10;99.90;;;;;;5065358;28;20434;-73
2023/10/20 10:26:55;;;;;;;10.90;5.03;;;19.10;99.90;;;;;;5066627;28;20566;-72
2023/10/20 10:29:50;;;;;;;10.80;4.93;;;18.80;99.90;;;;;;5066748;28;20398;-72
2023/10/20 10:32:21;;;;;;;5.20;3.67;;;18.80;99.90;;;;;;5065059;28;20998;-72
2023/10/20 10:34:52;;;;;;;5.07;4.30;;;18.90;99.90;;;;;;5066133;28;20478;-73
2023/10/20 10:37:33;;;;;;;4.50;3.20;;;18.90;99.90;;;;;;5066338;28;20436;-73
2023/10/20 10:40:13;;;;;;;3.53;2.80;;;19.00;99.90;;;;;;5066853;28;20409;-71
2023/10/20 10:42:47;;;;;;;3.60;3.30;;;18.80;99.90;;;;;;5067020;28;20473;-72
2023/10/20 10:45:15;;;;;;;4.83;2.23;;;18.70;99.90;;;;;;5067156;28;20413;-72
2023/10/20 10:47:40;;;;;;;2.90;2.60;;;18.70;99.90;;;;;;5067133;28;20865;-73
2023/10/20 10:50:06;;;;;;;3.43;2.27;;;18.60;99.90;;;;;;5067202;28;20415;-73
2023/10/20 10:52:35;;;;;;;2.00;1.60;;;18.60;99.90;;;;;;5067065;28;20203;-73
2023/10/20 10:55:01;;;;;;;4.53;2.30;;;18.50;99.90;;;;;;5066605;28;20175;-73
2023/10/20 10:57:26;;;;;;;3.40;1.60;;;18.30;99.90;;;;;;5065602;28;20447;-73
2023/10/20 10:59:53;;;;;;;2.27;1.57;;;18.20;99.90;;;;;;5068825;28;20187;-73
2023/10/20 11:02:20;;;;;;;1.77;1.30;;;18.20;99.90;;;;;;5068170;28;21093;-74
2023/10/20 11:04:45;;;;;;;1.37;1.27;;;18.00;99.90;;;;;;5070411;28;20855;-72
2023/10/20 11:07:13;;;;;;;2.20;1.20;;;18.00;99.90;;;;;;5068254;28;20453;-71
2023/10/20 11:09:39;;;;;;;2.47;1.43;;;17.90;99.90;;;;;;5069713;28;20216;-72
2023/10/20 11:12:08;;;;;;;1.37;1.20;;;17.80;99.90;;;;;;5069617;28;21150;-72
2023/10/20 11:14:34;;;;;;;1.20;1.10;;;17.70;99.90;;;;;;5071011;28;20915;-72
2023/10/20 11:17:03;;;;;;;1.00;0.90;;;17.60;99.90;;;;;;5070770;28;20443;-73
2023/10/20 11:19:29;;;;;;;1.00;0.80;;;17.60;99.90;;;;;;5070676;28;20268;-72
2023/10/20 11:21:55;;;;;;;6.17;1.20;;;17.60;99.90;;;;;;5069199;28;20563;-72
2023/10/20 11:24:36;;;;;;;2.40;1.10;;;17.60;99.90;;;;;;5070631;28;20212;-74
2023/10/20 11:27:07;;;;;;;1.63;1.00;;;17.60;99.90;;;;;;5070716;28;20212;-73
2023/10/20 11:29:35;;;;;;;2.50;0.80;;;17.60;99.90;;;;;;5070513;28;20415;-73
2023/10/20 11:32:07;;;;;;;1.07;0.60;;;17.70;99.90;;;;;;5069309;28;21248;-73
2023/10/20 11:34:33;;;;;;;1.00;0.70;;;17.70;99.90;;;;;;5070399;28;20420;-73
2023/10/20 11:37:00;;;;;;;1.73;0.97;;;17.70;99.90;;;;;;5070237;28;20498;-73
2023/10/20 11:39:27;;;;;;;1.17;0.60;;;17.70;99.90;;;;;;5070276;28;20429;-73
2023/10/20 11:41:53;;;;;;;1.73;0.70;;;17.70;99.90;;;;;;5070365;28;20875;-73
2023/10/20 11:44:20;;;;;;;2.10;0.60;;;17.60;99.90;;;;;;5070390;28;20413;-73
2023/10/20 11:46:46;;;;;;;0.97;0.53;;;17.60;99.90;;;;;;5068654;28;20454;-73
2023/10/20 11:49:12;;;;;;;1.00;0.50;;;17.50;99.90;;;;;;5068663;28;20464;-73
2023/10/20 11:51:41;;;;;;;0.80;0.50;;;17.60;99.90;;;;;;5070181;28;20455;-73
2023/10/20 11:54:06;;;;;;;0.90;0.50;;;17.70;99.90;;;;;;5069965;28;20736;-73
2023/10/20 11:56:32;;;;;;;0.80;0.40;;;17.70;99.90;;;;;;5069894;28;20441;-73
2023/10/20 11:58:58;;;;;;;0.77;0.40;;;17.70;99.90;;;;;;5070437;28;20214;-73
2023/10/20 12:01:24;;;;;;;0.90;0.40;;;17.80;99.90;;;;;;5068338;28;20221;-73
2023/10/20 12:03:50;;;;;;;0.90;0.40;;;17.90;99.90;;;;;;5069751;28;20827;-73
2023/10/20 12:06:15;;;;;;;1.67;0.50;;;17.90;99.90;;;;;;5068228;28;20445;-73
2023/10/20 12:08:41;;;;;;;1.00;0.40;;;17.90;99.90;;;;;;5069772;28;20225;-72
2023/10/20 12:11:08;;;;;;;1.77;0.50;;;17.90;99.90;;;;;;5067303;28;20598;-73
2023/10/20 12:13:36;;;;;;;1.00;0.40;;;17.80;99.90;;;;;;5069674;28;20188;-73
2023/10/20 12:16:04;;;;;;;0.80;0.50;;;17.80;99.90;;;;;;5070051;28;20474;-73
2023/10/20 12:18:30;;;;;;;0.70;0.30;;;17.80;99.90;;;;;;5068052;28;20915;-73
2023/10/20 12:20:56;;;;;;;1.10;0.40;;;17.80;99.90;;;;;;5067719;28;20432;-73
2023/10/20 12:23:21;;;;;;;0.80;0.40;;;17.70;99.90;;;;;;5069333;28;20413;-73
2023/10/20 12:25:47;;;;;;;0.70;0.40;;;17.70;99.90;;;;;;5069387;28;20561;-72
2023/10/20 12:28:12;;;;;;;0.70;0.40;;;17.60;99.90;;;;;;5067843;28;20186;-72
2023/10/20 12:30:38;;;;;;;1.00;0.33;;;17.80;99.90;;;;;;5069247;28;20186;-72
2023/10/20 12:33:05;;;;;;;0.80;0.40;;;17.90;99.90;;;;;;5069320;28;20188;-72
2023/10/20 12:35:31;;;;;;;0.70;0.40;;;17.90;99.90;;;;;;5069280;28;20182;-72
2023/10/20 12:37:57;;;;;;;1.20;0.40;;;17.90;99.90;;;;;;5051000;28;20453;-71
2023/10/20 12:40:22;;;;;;;0.70;0.30;;;18.00;99.90;;;;;;5069128;28;20439;-73
2023/10/20 12:42:49;;;;;;;2.00;0.30;;;18.00;99.90;;;;;;5067623;28;20204;-73
2023/10/20 12:45:16;;;;;;;0.80;0.40;;;18.10;99.90;;;;;;5067753;28;20195;-73
2023/10/20 12:47:42;;;;;;;0.80;0.40;;;18.10;99.90;;;;;;5068955;28;20472;-75
2023/10/20 12:50:08;;;;;;;0.80;0.40;;;18.10;99.90;;;;;;5069281;28;20446;-74
2023/10/20 12:52:34;;;;;;;0.83;0.40;;;18.10;99.90;;;;;;5069735;28;20735;-74
2023/10/20 12:55:00;;;;;;;0.90;0.40;;;18.10;99.90;;;;;;5069574;28;20421;-73
2023/10/20 12:57:26;;;;;;;0.70;0.33;;;18.10;99.90;;;;;;5070030;28;20459;-73
2023/10/20 12:59:51;;;;;;;0.70;0.40;;;18.10;99.90;;;;;;5069449;28;20197;-74
2023/10/20 13:02:17;;;;;;;0.90;0.33;;;18.00;99.90;;;;;;5069208;28;20216;-74
2023/10/20 13:04:43;;;;;;;0.70;0.40;;;18.00;99.90;;;;;;5069402;28;20180;-74
2023/10/20 13:07:09;;;;;;;0.80;0.40;;;18.00;99.90;;;;;;5069231;28;20443;-73
2023/10/20 13:09:34;;;;;;;2.10;0.40;;;17.90;99.90;;;;;;5069081;28;20180;-73
2023/10/20 13:12:00;;;;;;;0.70;0.40;;;17.80;99.90;;;;;;5068773;28;20206;-73